createdAt,value
2023-03-26T00:01:33.726Z,99383.78
2023-03-26T00:04:01.825Z,99376.75
2023-03-26T00:06:36.773Z,99375.72
2023-03-26T00:09:06.959Z,99373.25
2023-03-26T00:11:34.829Z,99375.81
2023-03-26T00:14:02.693Z,99372.97
2023-03-26T00:16:31.408Z,99376.06
2023-03-26T00:18:59.971Z,99375.75
2023-03-26T00:21:29.237Z,99381.06
2023-03-26T00:24:04.713Z,99381.84
2023-03-26T00:26:37.647Z,99377.41
2023-03-26T00:29:06.700Z,99376.22
2023-03-26T00:31:34.771Z,99365.69
2023-03-26T00:34:03.884Z,99374.53
2023-03-26T00:36:32.137Z,99373.97
2023-03-26T00:38:59.702Z,99367.78
2023-03-26T00:41:30.847Z,99373.06
2023-03-26T00:44:00.209Z,99373.22
2023-03-26T00:46:30.612Z,99368.84
2023-03-26T00:49:01.855Z,99358.53
2023-03-26T00:51:30.080Z,99365.22
2023-03-26T00:53:57.962Z,99357.53
2023-03-26T00:56:26.183Z,99359.44
2023-03-26T00:58:53.925Z,99358.63
2023-03-26T01:01:27.315Z,99343.22
2023-03-26T01:04:08.373Z,99352.59
2023-03-26T01:06:41.243Z,99356.88
2023-03-26T01:09:16.335Z,99366.38
2023-03-26T01:11:44.235Z,99355.22
2023-03-26T01:14:16.851Z,99355.31
2023-03-26T01:16:56.696Z,99355.25
2023-03-26T01:19:44.681Z,99364.75
2023-03-26T01:22:18.014Z,99363.03
2023-03-26T01:24:52.184Z,99358.78
2023-03-26T01:27:34.594Z,99365.56
2023-03-26T01:30:11.177Z,99367.41
2023-03-26T01:32:57.780Z,99362.91
2023-03-26T01:35:46.112Z,99372.41
2023-03-26T01:38:13.490Z,99373.28
2023-03-26T01:41:03.439Z,99372.66
2023-03-26T01:43:33.723Z,99368.03
2023-03-26T01:46:05.415Z,99366.19
2023-03-26T01:48:38.559Z,99363.59
2023-03-26T01:51:07.293Z,99365.88
2023-03-26T01:53:38.406Z,99368.63
2023-03-26T01:56:13.317Z,99364.28
2023-03-26T01:59:05.753Z,99371.25
2023-03-26T02:01:46.156Z,99369.53
2023-03-26T02:04:48.169Z,99373.81
2023-03-26T02:07:45.052Z,99375.31
2023-03-26T02:10:21.556Z,99374.31
2023-03-26T02:12:50.031Z,99372.56
2023-03-26T02:15:17.614Z,99381.25
2023-03-26T02:17:45.043Z,99384.81
2023-03-26T02:20:14.310Z,99378.06
2023-03-26T02:22:45.601Z,99391.97
2023-03-26T02:25:18.945Z,99385.72
2023-03-26T02:27:47.806Z,99386.50
2023-03-26T02:30:21.664Z,99387.47
2023-03-26T02:32:52.350Z,99382.22
2023-03-26T02:35:21.914Z,99381.25
2023-03-26T02:37:50.874Z,99369.00
2023-03-26T02:40:21.180Z,99368.13
2023-03-26T02:42:49.628Z,99364.66
2023-03-26T02:45:17.319Z,99358.75
2023-03-26T02:47:47.634Z,99358.56
2023-03-26T02:50:16.921Z,99354.25
2023-03-26T02:52:45.417Z,99341.16
2023-03-26T02:55:12.884Z,99348.78
2023-03-26T02:57:41.296Z,99347.25
2023-03-26T03:00:11.074Z,99347.13
2023-03-26T03:02:39.824Z,99346.37
2023-03-26T03:05:09.226Z,99351.53
2023-03-26T03:07:38.640Z,99346.50
2023-03-26T03:10:09.984Z,99339.53
2023-03-26T03:12:41.248Z,99341.25
2023-03-26T03:15:09.288Z,99336.16
2023-03-26T03:17:36.743Z,99337.00
2023-03-26T03:20:06.869Z,99342.31
2023-03-26T03:22:34.404Z,99344.19
2023-03-26T03:25:02.658Z,99352.84
2023-03-26T03:27:30.657Z,99348.59
2023-03-26T03:29:59.039Z,99359.84
2023-03-26T03:32:27.722Z,99355.53
2023-03-26T03:34:56.494Z,99347.75
2023-03-26T03:37:26.334Z,99350.38
2023-03-26T03:39:54.187Z,99340.97
2023-03-26T03:42:22.305Z,99355.72
2023-03-26T03:44:50.591Z,99353.13
2023-03-26T03:47:20.340Z,99361.81
2023-03-26T03:49:48.325Z,99367.94
2023-03-26T03:52:16.394Z,99362.91
2023-03-26T03:54:43.829Z,99368.97
2023-03-26T03:57:12.183Z,99367.25
2023-03-26T03:59:47.903Z,99368.13
2023-03-26T04:02:34.683Z,99373.38
2023-03-26T04:05:04.416Z,99373.38
2023-03-26T04:07:32.683Z,99374.28
2023-03-26T04:10:08.329Z,99375.16
2023-03-26T04:12:37.230Z,99370.88
2023-03-26T04:15:05.905Z,99373.50
2023-03-26T04:17:33.505Z,99384.78
2023-03-26T04:20:14.505Z,99372.62
2023-03-26T04:22:43.857Z,99375.25
2023-03-26T04:25:12.467Z,99362.25
2023-03-26T04:27:43.976Z,99372.69
2023-03-26T04:30:15.702Z,99371.00
2023-03-26T04:32:44.705Z,99375.31
2023-03-26T04:35:16.767Z,99377.06
2023-03-26T04:37:46.109Z,99373.56
2023-03-26T04:40:18.360Z,99372.69
2023-03-26T04:42:46.725Z,99383.16
2023-03-26T04:45:17.751Z,99379.66
2023-03-26T04:47:46.434Z,99384.09
2023-03-26T04:50:14.726Z,99377.94
2023-03-26T04:52:45.084Z,99374.47
2023-03-26T04:56:06.449Z,99381.38
2023-03-26T04:58:35.704Z,99388.28
2023-03-26T05:01:10.277Z,99387.38
2023-03-26T05:03:39.195Z,99387.41
2023-03-26T05:06:09.982Z,99389.09
2023-03-26T05:08:37.440Z,99382.13
2023-03-26T05:11:11.361Z,99376.84
2023-03-26T05:13:39.622Z,99380.31
2023-03-26T05:16:08.678Z,99388.03
2023-03-26T05:18:36.693Z,99384.53
2023-03-26T05:21:05.355Z,99378.47
2023-03-26T05:23:33.343Z,99395.72
2023-03-26T05:26:01.710Z,99390.44
2023-03-26T05:28:29.497Z,99383.31
2023-03-26T05:30:57.217Z,99383.28
2023-03-26T05:33:25.063Z,99385.09
2023-03-26T05:36:05.597Z,99382.47
2023-03-26T05:38:33.417Z,99381.47
2023-03-26T05:41:03.789Z,99368.34
2023-03-26T05:43:31.356Z,99366.56
2023-03-26T05:45:59.235Z,99371.78
2023-03-26T05:48:27.921Z,99376.87
2023-03-26T05:50:57.695Z,99376.81
2023-03-26T05:53:27.105Z,99370.63
2023-03-26T05:56:06.455Z,99370.59
2023-03-26T05:58:36.676Z,99369.63
2023-03-26T06:01:08.407Z,99366.16
2023-03-26T06:03:39.555Z,99370.44
2023-03-26T06:06:09.741Z,99361.37
2023-03-26T06:08:37.941Z,99357.84
2023-03-26T06:11:08.086Z,99364.12
2023-03-26T06:13:36.034Z,99355.91
2023-03-26T06:16:03.853Z,99365.97
2023-03-26T06:18:31.651Z,99356.88
2023-03-26T06:20:59.578Z,99358.09
2023-03-26T06:23:28.351Z,99351.16
2023-03-26T06:25:56.208Z,99353.03
2023-03-26T06:28:24.459Z,99362.91
2023-03-26T06:30:52.827Z,99365.16
2023-03-26T06:33:22.130Z,99365.31
2023-03-26T06:35:51.486Z,99370.66
2023-03-26T06:38:19.393Z,99371.31
2023-03-26T06:40:47.006Z,99372.03
2023-03-26T06:43:14.762Z,99368.72
2023-03-26T06:45:43.589Z,99367.22
2023-03-26T06:48:12.785Z,99376.19
2023-03-26T06:50:40.837Z,99369.47
2023-03-26T06:53:09.996Z,99371.84
2023-03-26T06:55:38.296Z,99371.72
2023-03-26T06:58:06.428Z,99373.59
2023-03-26T07:00:35.837Z,99375.06
2023-03-26T07:03:06.210Z,99371.72
2023-03-26T07:05:43.114Z,99377.38
2023-03-26T07:08:10.560Z,99377.84
2023-03-26T07:10:39.310Z,99373.50
2023-03-26T07:13:07.523Z,99366.69
2023-03-26T07:15:35.867Z,99377.44
2023-03-26T07:18:03.476Z,99371.47
2023-03-26T07:20:31.455Z,99374.25
2023-03-26T07:22:59.573Z,99368.28
2023-03-26T07:25:29.198Z,99365.81
2023-03-26T07:28:03.658Z,99375.06
2023-03-26T07:30:50.583Z,99367.56
2023-03-26T07:33:30.543Z,99364.75
2023-03-26T07:36:12.660Z,99363.09
2023-03-26T07:38:49.667Z,99371.47
2023-03-26T07:41:29.394Z,99377.34
2023-03-26T07:44:04.269Z,99376.97
2023-03-26T07:46:37.061Z,99364.28
2023-03-26T07:49:06.974Z,99368.00
2023-03-26T07:51:35.104Z,99377.34
2023-03-26T07:54:04.267Z,99375.03
2023-03-26T07:56:49.413Z,99376.50
2023-03-26T07:59:39.410Z,99368.22
2023-03-26T08:02:27.239Z,99373.22
2023-03-26T08:05:18.960Z,99366.94
2023-03-26T08:08:02.837Z,99371.38
2023-03-26T08:10:52.505Z,99374.53
2023-03-26T08:13:25.448Z,99365.25
2023-03-26T08:16:05.727Z,99367.16
2023-03-26T08:18:47.610Z,99362.53
2023-03-26T08:21:22.342Z,99365.59
2023-03-26T08:24:07.995Z,99356.84
2023-03-26T08:26:59.426Z,99352.56
2023-03-26T08:29:45.230Z,99354.47
2023-03-26T08:32:16.409Z,99351.81
2023-03-26T08:34:43.898Z,99347.97
2023-03-26T08:37:12.985Z,99352.31
2023-03-26T08:39:42.034Z,99353.22
2023-03-26T08:42:24.618Z,99344.09
2023-03-26T08:45:29.404Z,99335.47
2023-03-26T08:48:03.674Z,99344.84
2023-03-26T08:50:49.833Z,99341.50
2023-03-26T08:53:24.783Z,99338.53
2023-03-26T08:56:22.049Z,99337.16
2023-03-26T08:59:19.746Z,99331.78
2023-03-26T09:02:19.759Z,99338.06
2023-03-26T09:05:14.604Z,99332.97
2023-03-26T09:08:01.719Z,99333.88
2023-03-26T09:10:32.104Z,99331.97
2023-03-26T09:13:24.267Z,99327.91
2023-03-26T09:16:17.460Z,99324.19
2023-03-26T09:19:22.617Z,99319.47
2023-03-26T09:22:17.105Z,99323.16
2023-03-26T09:25:04.768Z,99322.63
2023-03-26T09:27:38.105Z,99307.00
2023-03-26T09:30:30.259Z,99312.03
2023-03-26T09:33:28.420Z,99306.66
2023-03-26T09:36:08.476Z,99302.63
2023-03-26T09:39:09.294Z,99303.00
2023-03-26T09:42:09.578Z,99294.41
2023-03-26T09:44:58.243Z,99291.47
2023-03-26T09:47:26.282Z,99285.44
2023-03-26T09:50:15.474Z,99287.69
2023-03-26T09:53:09.314Z,99289.19
2023-03-26T09:56:16.521Z,99275.34
2023-03-26T09:58:46.959Z,99258.78
2023-03-26T10:01:20.486Z,99260.53
2023-03-26T10:04:06.987Z,99241.88
2023-03-26T10:06:49.680Z,99248.75
2023-03-26T10:09:36.055Z,99240.28
2023-03-26T10:12:28.363Z,99256.81
2023-03-26T10:14:59.038Z,99264.13
2023-03-26T10:17:55.631Z,99265.53
2023-03-26T10:20:38.043Z,99275.44
2023-03-26T10:23:18.528Z,99267.81
2023-03-26T10:26:17.354Z,99273.47
2023-03-26T10:29:13.046Z,99256.66
2023-03-26T10:32:24.029Z,99248.69
2023-03-26T10:34:57.039Z,99249.62
2023-03-26T10:37:37.074Z,99242.97
2023-03-26T10:40:23.654Z,99229.59
2023-03-26T10:43:29.651Z,99231.91
2023-03-26T10:46:09.780Z,99217.72
2023-03-26T10:48:56.525Z,99216.06
2023-03-26T10:51:48.819Z,99210.97
2023-03-26T10:54:55.294Z,99208.72
2023-03-26T10:57:54.225Z,99205.25
2023-03-26T11:00:27.034Z,99196.75
2023-03-26T11:03:16.052Z,99185.09
2023-03-26T11:05:46.709Z,99186.88
2023-03-26T11:08:56.037Z,99179.34
2023-03-26T11:11:42.180Z,99182.91
2023-03-26T11:14:33.896Z,99169.75
2023-03-26T11:17:08.502Z,99161.63
2023-03-26T11:19:53.135Z,99158.66
2023-03-26T11:22:30.043Z,99153.31
2023-03-26T11:25:05.425Z,99153.34
2023-03-26T11:27:40.518Z,99152.00
2023-03-26T11:30:17.027Z,99144.12
2023-03-26T11:32:46.461Z,99137.53
2023-03-26T11:35:40.939Z,99142.34
2023-03-26T11:38:23.281Z,99131.94
2023-03-26T11:40:53.329Z,99124.13
2023-03-26T11:43:32.035Z,99106.84
2023-03-26T11:45:59.530Z,99108.94
2023-03-26T11:48:44.398Z,99091.50
2023-03-26T11:51:18.773Z,99088.28
2023-03-26T11:53:46.780Z,99080.28
2023-03-26T11:56:18.304Z,99064.47
2023-03-26T11:59:08.905Z,99075.06
2023-03-26T12:01:56.564Z,99060.75
2023-03-26T12:04:34.997Z,99053.78
2023-03-26T12:07:23.814Z,99050.59
2023-03-26T12:09:52.950Z,99041.47
2023-03-26T12:12:20.985Z,99031.66
2023-03-26T12:14:48.540Z,99037.84
2023-03-26T12:17:31.913Z,99028.84
2023-03-26T12:20:01.127Z,99028.41
2023-03-26T12:22:38.530Z,99014.75
2023-03-26T12:25:25.912Z,99008.03
2023-03-26T12:28:04.807Z,99006.00
2023-03-26T12:30:39.621Z,99003.66
2023-03-26T12:33:16.293Z,99000.44
2023-03-26T12:35:44.071Z,98990.13
2023-03-26T12:38:37.263Z,98973.06
2023-03-26T12:41:08.018Z,98976.16
2023-03-26T12:44:49.858Z,98966.22
2023-03-26T12:47:54.377Z,98969.50
2023-03-26T12:49:18.799Z,98959.66
2023-03-26T12:52:25.212Z,98961.75
2023-03-26T12:54:55.923Z,98970.06
2023-03-26T12:57:25.271Z,98959.97
2023-03-26T13:00:21.353Z,98964.56
2023-03-26T13:03:05.678Z,98954.81
2023-03-26T13:05:55.434Z,98943.25
2023-03-26T13:08:46.601Z,98938.44
2023-03-26T13:11:27.529Z,98941.84
2023-03-26T13:14:10.644Z,98927.41
2023-03-26T13:17:04.961Z,98915.03
2023-03-26T13:19:53.947Z,98910.44
2023-03-26T13:22:42.487Z,98912.19
2023-03-26T13:25:25.679Z,98906.66
2023-03-26T13:27:56.361Z,98910.41
2023-03-26T13:30:52.339Z,98902.09
2023-03-26T13:33:43.344Z,98901.38
2023-03-26T13:36:23.114Z,98888.53
2023-03-26T13:39:10.897Z,98888.28
2023-03-26T13:41:50.084Z,98889.22
2023-03-26T13:44:52.737Z,98886.41
2023-03-26T13:47:36.692Z,98878.56
2023-03-26T13:50:29.094Z,98874.72
2023-03-26T13:53:02.220Z,98866.94
2023-03-26T13:55:40.120Z,98862.72
2023-03-26T13:58:10.881Z,98865.13
2023-03-26T14:00:41.962Z,98848.06
2023-03-26T14:03:26.379Z,98839.81
2023-03-26T14:05:55.940Z,98834.31
2023-03-26T14:08:31.663Z,98838.84
2023-03-26T14:11:44.377Z,98825.94
2023-03-26T14:14:32.293Z,98832.63
2023-03-26T14:17:05.674Z,98823.97
2023-03-26T14:19:40.319Z,98818.78
2023-03-26T14:22:18.264Z,98817.47
2023-03-26T14:25:08.593Z,98819.34
2023-03-26T14:28:13.983Z,98814.72
2023-03-26T14:31:20.744Z,98808.88
2023-03-26T14:34:17.655Z,98815.62
2023-03-26T14:37:28.094Z,98808.22
2023-03-26T14:40:20.490Z,98809.12
2023-03-26T14:43:12.766Z,98809.78
2023-03-26T14:46:11.011Z,98801.25
2023-03-26T14:48:48.335Z,98789.09
2023-03-26T14:51:41.458Z,98786.78
2023-03-26T14:54:13.286Z,98793.44
2023-03-26T14:56:50.082Z,98775.41
2023-03-26T14:59:29.511Z,98765.28
2023-03-26T15:02:22.284Z,98763.84
2023-03-26T15:04:49.732Z,98755.84
2023-03-26T15:07:36.112Z,98745.94
2023-03-26T15:10:22.698Z,98744.53
2023-03-26T15:13:21.622Z,98747.41
2023-03-26T15:15:55.318Z,98728.41
2023-03-26T15:18:32.305Z,98735.03
2023-03-26T15:21:24.692Z,98742.41
2023-03-26T15:24:13.414Z,98733.06
2023-03-26T15:27:01.090Z,98728.56
2023-03-26T15:29:40.559Z,98717.41
2023-03-26T15:32:26.753Z,98718.66
2023-03-26T15:35:16.939Z,98711.88
2023-03-26T15:38:12.614Z,98722.31
2023-03-26T15:41:01.628Z,98722.41
2023-03-26T15:44:23.618Z,98721.69
2023-03-26T15:47:15.578Z,98718.75
2023-03-26T15:49:59.207Z,98719.38
2023-03-26T15:52:32.499Z,98716.59
2023-03-26T15:54:59.846Z,98707.59
2023-03-26T15:57:44.075Z,98710.25
2023-03-26T16:00:22.192Z,98699.81
2023-03-26T16:03:10.908Z,98694.50
2023-03-26T16:05:57.284Z,98699.22
2023-03-26T16:08:47.005Z,98686.78
2023-03-26T16:11:15.402Z,98675.00
2023-03-26T16:13:49.508Z,98665.44
2023-03-26T16:16:24.894Z,98663.91
2023-03-26T16:18:58.988Z,98652.28
2023-03-26T16:21:36.490Z,98654.28
2023-03-26T16:24:07.363Z,98656.16
2023-03-26T16:26:43.626Z,98645.81
2023-03-26T16:29:18.139Z,98641.47
2023-03-26T16:32:10.546Z,98639.59
2023-03-26T16:34:42.775Z,98640.78
2023-03-26T16:37:32.216Z,98638.06
2023-03-26T16:40:22.278Z,98644.72
2023-03-26T16:43:20.113Z,98639.97
2023-03-26T16:45:57.031Z,98633.03
2023-03-26T16:48:49.132Z,98640.88
2023-03-26T16:51:22.380Z,98644.53
2023-03-26T16:54:13.356Z,98641.88
2023-03-26T16:56:47.463Z,98639.22
2023-03-26T16:59:42.991Z,98640.62
2023-03-26T17:02:19.840Z,98639.47
2023-03-26T17:04:50.737Z,98640.97
2023-03-26T17:07:24.243Z,98646.50
2023-03-26T17:10:08.710Z,98638.09
2023-03-26T17:13:10.921Z,98638.75
2023-03-26T17:16:12.763Z,98637.59
2023-03-26T17:18:55.734Z,98639.06
2023-03-26T17:21:46.318Z,98632.97
2023-03-26T17:24:33.844Z,98638.66
2023-03-26T17:27:26.597Z,98632.56
2023-03-26T17:30:16.105Z,98640.06
2023-03-26T17:33:13.599Z,98635.63
2023-03-26T17:35:46.454Z,98632.75
2023-03-26T17:38:16.763Z,98627.31
2023-03-26T17:41:00.637Z,98631.47
2023-03-26T17:43:51.421Z,98627.78
2023-03-26T17:46:37.998Z,98633.00
2023-03-26T17:49:31.483Z,98639.91
2023-03-26T17:52:02.058Z,98638.78
2023-03-26T17:54:44.168Z,98644.03
2023-03-26T17:57:27.134Z,98643.78
2023-03-26T17:59:59.073Z,98630.28
2023-03-26T18:02:43.656Z,98626.53
2023-03-26T18:05:13.713Z,98633.22
2023-03-26T18:08:19.755Z,98630.28
2023-03-26T18:11:05.459Z,98632.13
2023-03-26T18:14:02.791Z,98628.13
2023-03-26T18:16:44.236Z,98632.81
2023-03-26T18:19:19.843Z,98626.50
2023-03-26T18:21:53.350Z,98635.25
2023-03-26T18:24:30.289Z,98630.22
2023-03-26T18:27:03.611Z,98632.16
2023-03-26T18:29:33.355Z,98629.44
2023-03-26T18:32:03.900Z,98617.66
2023-03-26T18:34:34.058Z,98621.28
2023-03-26T18:37:08.518Z,98614.66
2023-03-26T18:39:36.568Z,98612.47
2023-03-26T18:42:06.009Z,98609.75
2023-03-26T18:44:36.706Z,98607.88
2023-03-26T18:47:06.453Z,98604.34
2023-03-26T18:49:33.936Z,98595.69
2023-03-26T18:52:01.376Z,98603.44
2023-03-26T18:54:33.846Z,98600.31
2023-03-26T18:57:15.871Z,98591.34
2023-03-26T18:59:45.400Z,98588.81
2023-03-26T19:02:13.911Z,98578.78
2023-03-26T19:04:46.123Z,98575.72
2023-03-26T19:07:18.075Z,98574.59
2023-03-26T19:09:45.580Z,98577.16
2023-03-26T19:12:25.207Z,98567.59
2023-03-26T19:15:07.783Z,98561.31
2023-03-26T19:17:40.781Z,98562.53
2023-03-26T19:20:16.742Z,98562.31
2023-03-26T19:22:45.398Z,98554.16
2023-03-26T19:25:21.689Z,98550.31
2023-03-26T19:27:50.691Z,98552.72
2023-03-26T19:30:28.488Z,98547.91
2023-03-26T19:32:56.617Z,98542.06
2023-03-26T19:35:42.557Z,98539.44
2023-03-26T19:38:29.697Z,98530.28
2023-03-26T19:40:58.112Z,98526.44
2023-03-26T19:43:26.219Z,98518.22
2023-03-26T19:46:00.352Z,98514.19
2023-03-26T19:48:45.264Z,98504.56
2023-03-26T19:51:31.546Z,98492.63
2023-03-26T19:54:03.067Z,98490.31
2023-03-26T19:56:30.817Z,98492.34
2023-03-26T19:58:59.190Z,98486.91
2023-03-26T20:01:29.203Z,98481.44
2023-03-26T20:04:00.898Z,98468.31
2023-03-26T20:06:41.491Z,98469.87
2023-03-26T20:09:11.676Z,98459.13
2023-03-26T20:11:39.708Z,98450.88
2023-03-26T20:14:13.018Z,98448.75
2023-03-26T20:16:42.810Z,98439.84
2023-03-26T20:19:11.424Z,98439.19
2023-03-26T20:21:40.245Z,98430.72
2023-03-26T20:24:12.948Z,98431.59
2023-03-26T20:26:40.642Z,98425.69
2023-03-26T20:29:08.349Z,98433.03
2023-03-26T20:31:35.922Z,98421.53
2023-03-26T20:34:03.564Z,98419.91
2023-03-26T20:36:34.256Z,98412.38
2023-03-26T20:39:08.441Z,98405.09
2023-03-26T20:41:42.769Z,98405.66
2023-03-26T20:44:15.956Z,98409.28
2023-03-26T20:46:45.369Z,98409.44
2023-03-26T20:49:12.934Z,98404.94
2023-03-26T20:51:42.022Z,98402.91
2023-03-26T20:54:30.335Z,98395.34
2023-03-26T20:56:58.145Z,98396.16
2023-03-26T20:59:28.005Z,98399.63
2023-03-26T21:01:56.979Z,98387.22
2023-03-26T21:04:26.144Z,98388.66
2023-03-26T21:07:00.295Z,98381.38
2023-03-26T21:09:34.791Z,98387.63
2023-03-26T21:12:06.016Z,98387.44
2023-03-26T21:14:41.424Z,98390.06
2023-03-26T21:17:22.261Z,98404.34
2023-03-26T21:19:50.124Z,98431.31
2023-03-26T21:22:41.172Z,98432.81
2023-03-26T21:25:22.797Z,98432.81
2023-03-26T21:28:09.167Z,98436.75
2023-03-26T21:30:37.441Z,98432.38
2023-03-26T21:33:06.243Z,98441.50
2023-03-26T21:35:34.771Z,98425.28
2023-03-26T21:38:04.725Z,98432.97
2023-03-26T21:40:33.075Z,98434.19
2023-03-26T21:43:01.063Z,98435.62
2023-03-26T21:45:28.831Z,98438.25
2023-03-26T21:47:57.032Z,98433.34
2023-03-26T21:50:24.782Z,98433.78
2023-03-26T21:52:52.627Z,98440.13
2023-03-26T21:55:22.764Z,98431.69
2023-03-26T21:58:13.198Z,98434.59
2023-03-26T22:01:13.310Z,98436.94
2023-03-26T22:03:47.001Z,98438.13
2023-03-26T22:06:25.744Z,98440.66
2023-03-26T22:08:53.553Z,98437.25
2023-03-26T22:11:20.966Z,98440.31
2023-03-26T22:13:48.391Z,98449.56
2023-03-26T22:16:18.777Z,98440.78
2023-03-26T22:18:46.244Z,98439.63
2023-03-26T22:21:14.098Z,98437.38
2023-03-26T22:23:41.831Z,98443.59
2023-03-26T22:26:09.518Z,98447.25
2023-03-26T22:28:37.199Z,98437.87
2023-03-26T22:31:08.278Z,98436.44
2023-03-26T22:33:36.070Z,98432.34
2023-03-26T22:36:03.626Z,98421.09
2023-03-26T22:38:31.336Z,98421.53
2023-03-26T22:40:58.974Z,98399.81
2023-03-26T22:43:26.514Z,98398.31
2023-03-26T22:45:55.011Z,98403.34
2023-03-26T22:48:23.813Z,98393.31
2023-03-26T22:51:05.459Z,98390.47
2023-03-26T22:53:33.138Z,98386.91
2023-03-26T22:56:00.773Z,98382.53
2023-03-26T22:58:28.623Z,98377.91
2023-03-26T23:01:14.565Z,98374.12
2023-03-26T23:03:43.038Z,98371.16
2023-03-26T23:06:12.046Z,98367.25
2023-03-26T23:08:40.055Z,98371.78
2023-03-26T23:11:13.172Z,98362.09
2023-03-26T23:13:41.720Z,98364.19
2023-03-26T23:16:10.232Z,98359.66
2023-03-26T23:18:38.150Z,98352.13
2023-03-26T23:21:12.006Z,98348.72
2023-03-26T23:23:39.955Z,98342.59
2023-03-26T23:26:07.717Z,98340.13
2023-03-26T23:28:35.655Z,98331.97
2023-03-26T23:31:05.583Z,98325.09
2023-03-26T23:33:35.383Z,98333.03
2023-03-26T23:36:08.800Z,98322.22
2023-03-26T23:38:43.422Z,98322.00
2023-03-26T23:41:14.837Z,98316.91
2023-03-26T23:43:54.878Z,98314.75
2023-03-26T23:46:25.118Z,98306.91
2023-03-26T23:48:53.250Z,98296.00
2023-03-26T23:51:21.533Z,98294.53
2023-03-26T23:53:49.530Z,98293.31
2023-03-26T23:56:17.566Z,98280.53
2023-03-26T23:58:45.254Z,98275.12
